Time;durP1;ratioP1;P1;durP2;ratioP2;P2;SDS_P1;SDS_P2;PMS_P1;PMS_P2;Temp;Humidity;BMP_temperature;BMP_pressure;BME280_temperature;BME280_humidity;BME280_pressure;Samples;Min_cycle;Max_cycle;Signal;HPM_P1;HPM_P2
2022/06/04 00:01:27;;;;;;;17.98;11.60;;;;;;;14.16;61.35;101897.63;4938214;28;120721;-78
2022/06/04 00:03:53;;;;;;;17.15;11.90;;;;;;;14.13;61.16;101883.50;4971806;28;120210;-78
2022/06/04 00:06:18;;;;;;;15.13;10.75;;;;;;;14.09;60.87;101885.63;4955329;28;119678;-77
2022/06/04 00:08:44;;;;;;;14.10;10.95;;;;;;;14.10;61.18;101895.44;4971556;28;119437;-78
2022/06/04 00:16:38;;;;;;;;;;;;;;;13.99;60.94;101892.28;4936117;28;121111;-78
2022/06/04 00:19:04;;;;;;;16.17;11.07;;;;;;;14.00;61.10;101901.34;4951978;28;120117;-78
2022/06/04 00:21:30;;;;;;;16.05;11.30;;;;;;;14.00;61.00;101896.59;4953403;28;119192;-77
2022/06/04 00:23:56;;;;;;;15.55;11.88;;;;;;;13.96;61.08;101890.41;4935204;28;121702;-78
2022/06/04 00:26:22;;;;;;;13.77;10.95;;;;;;;13.98;60.95;101885.22;4938526;28;119665;-79
2022/06/04 00:28:48;;;;;;;15.32;11.30;;;;;;;13.98;60.84;101887.22;4938913;28;121679;-78
2022/06/04 00:31:15;;;;;;;14.45;11.57;;;;;;;13.97;61.10;101891.97;4958967;28;121005;-76
2022/06/04 00:33:41;;;;;;;14.60;10.70;;;;;;;13.92;61.21;101873.19;4955504;28;119231;-77
2022/06/04 00:36:07;;;;;;;18.15;11.90;;;;;;;13.93;61.17;101879.47;4937972;28;122037;-77
2022/06/04 00:38:34;;;;;;;14.60;11.55;;;;;;;13.87;60.58;101881.25;4956580;28;119262;-78
2022/06/04 00:41:08;;;;;;;16.08;11.52;;;;;;;13.83;60.79;101875.88;4939002;28;120296;-77
2022/06/04 00:44:13;;;;;;;16.83;11.95;;;;;;;13.82;61.50;101877.06;4951926;28;120114;-78
2022/06/04 00:46:39;;;;;;;17.02;11.30;;;;;;;13.80;61.43;101883.03;4908646;28;119345;-78
2022/06/04 00:49:06;;;;;;;16.40;11.82;;;;;;;13.81;61.76;101889.31;4935735;28;120439;-78
2022/06/04 00:51:32;;;;;;;18.33;12.13;;;;;;;13.75;61.23;101875.34;4900436;28;120959;-77
2022/06/04 00:53:58;;;;;;;15.00;11.85;;;;;;;13.78;61.43;101888.22;4938824;28;119677;-78
2022/06/04 00:57:01;;;;;;;18.27;12.32;;;;;;;13.78;61.47;101885.47;4934231;28;119900;-77
2022/06/04 00:59:42;;;;;;;15.60;12.10;;;;;;;13.77;60.86;101888.69;4934525;28;119553;-78
2022/06/04 01:02:30;;;;;;;16.92;12.02;;;;;;;13.75;61.58;101880.06;4934251;28;119342;-78
2022/06/04 01:04:55;;;;;;;17.17;12.80;;;;;;;13.74;61.66;101878.53;4934584;28;119229;-78
2022/06/04 01:07:47;;;;;;;15.10;12.15;;;;;;;13.70;61.00;101872.34;4902011;28;120392;-77
2022/06/04 01:10:54;;;;;;;16.08;12.95;;;;;;;13.65;61.06;101881.16;4932886;28;119292;-78
2022/06/04 01:13:34;;;;;;;15.93;12.10;;;;;;;13.62;61.66;101871.03;4955094;28;119289;-78
2022/06/04 01:16:02;;;;;;;16.42;12.05;;;;;;;13.57;61.83;101875.13;4955729;28;119667;-78
2022/06/04 01:18:41;;;;;;;14.55;11.85;;;;;;;13.56;61.66;101872.81;4958947;28;119363;-77
2022/06/04 01:21:16;;;;;;;17.38;12.25;;;;;;;13.54;61.78;101870.50;4955505;28;119495;-77
2022/06/04 01:23:50;;;;;;;16.50;11.77;;;;;;;13.51;61.75;101880.41;4934650;28;119817;-77
2022/06/04 01:26:19;;;;;;;18.08;11.95;;;;;;;13.50;61.82;101873.38;4935366;28;119216;-77
2022/06/04 01:28:52;;;;;;;17.13;11.65;;;;;;;13.43;62.33;101865.28;4936065;28;119373;-77
2022/06/04 01:31:23;;;;;;;16.33;11.70;;;;;;;13.44;62.04;101863.31;4939116;28;119510;-78
2022/06/04 01:33:56;;;;;;;16.15;11.70;;;;;;;13.43;62.76;101862.53;4936470;28;119410;-78
2022/06/04 01:36:40;;;;;;;17.35;11.68;;;;;;;13.50;62.86;101865.09;4919987;28;119487;-78
2022/06/04 01:39:13;;;;;;;13.38;10.95;;;;;;;13.54;62.50;101858.69;4936778;28;119280;-78
2022/06/04 01:41:51;;;;;;;17.08;11.10;;;;;;;13.54;62.95;101853.19;4943207;28;120226;-78
2022/06/04 01:44:22;;;;;;;16.00;10.70;;;;;;;13.61;62.91;101858.47;4915869;28;119803;-77
2022/06/04 01:46:51;;;;;;;12.73;9.82;;;;;;;13.62;62.89;101846.22;4899831;28;119679;-77
2022/06/04 01:49:24;;;;;;;15.07;10.65;;;;;;;13.69;63.38;101852.25;4901379;28;119670;-77
2022/06/04 01:51:54;;;;;;;15.07;10.77;;;;;;;13.72;63.92;101836.81;4916844;28;119387;-78
2022/06/04 01:54:25;;;;;;;14.10;10.50;;;;;;;13.85;63.64;101839.56;4933593;28;119457;-78
2022/06/04 01:57:01;;;;;;;14.10;10.20;;;;;;;13.91;63.22;101840.53;4934625;28;119759;-78
2022/06/04 01:59:47;;;;;;;16.70;9.75;;;;;;;13.94;62.72;101834.91;4886006;28;120627;-78
2022/06/04 02:02:17;;;;;;;12.65;9.40;;;;;;;13.89;63.00;101829.94;4933132;28;119390;-77
2022/06/04 02:04:48;;;;;;;14.90;9.65;;;;;;;13.96;63.27;101838.00;4938922;28;119073;-77
2022/06/04 02:07:32;;;;;;;13.40;9.73;;;;;;;14.00;63.69;101835.13;4916671;28;121854;-77
2022/06/04 02:10:10;;;;;;;;;;;;;;;14.07;62.93;101841.16;4901621;28;119362;-78
2022/06/04 02:12:38;;;;;;;13.23;9.40;;;;;;;14.12;63.35;101846.09;4934199;28;119881;-77
2022/06/04 02:15:10;;;;;;;14.85;10.35;;;;;;;14.21;63.81;101845.44;4916673;28;120203;-79
2022/06/04 02:17:42;;;;;;;13.63;10.63;;;;;;;14.27;64.13;101842.88;4917159;28;120067;-78
2022/06/04 02:20:09;;;;;;;12.85;10.02;;;;;;;14.32;63.46;101834.00;4934488;28;119284;-77
2022/06/04 02:22:36;;;;;;;15.98;10.32;;;;;;;14.34;63.34;101826.03;4933545;28;119319;-78
2022/06/04 02:25:05;;;;;;;17.10;10.02;;;;;;;14.37;62.58;101825.13;4934820;28;119706;-77
2022/06/04 02:27:32;;;;;;;18.45;9.85;;;;;;;14.36;62.15;101829.91;4938234;28;119457;-78
2022/06/04 02:30:01;;;;;;;14.00;9.00;;;;;;;14.35;62.47;101827.59;4900977;28;119296;-78
2022/06/04 02:32:55;;;;;;;13.52;8.20;;;;;;;14.34;62.34;101820.53;4952266;28;119698;-78
2022/06/04 02:35:25;;;;;;;;;;;;;;;14.35;62.66;101819.31;4953834;28;119830;-77
2022/06/04 02:38:00;;;;;;;12.75;8.48;;;;;;;14.42;62.08;101827.31;4954020;28;119515;-77
2022/06/04 02:40:31;;;;;;;13.25;8.82;;;;;;;14.43;61.98;101823.38;4954788;28;119582;-77
2022/06/04 02:42:57;;;;;;;12.10;7.90;;;;;;;14.52;62.18;101822.69;4919678;28;122333;-77
2022/06/04 02:45:38;;;;;;;11.45;8.43;;;;;;;14.56;62.29;101829.63;4950898;28;119964;-77
2022/06/04 02:48:14;;;;;;;15.70;8.27;;;;;;;14.58;62.09;101829.16;4936382;28;119720;-78
2022/06/04 02:50:45;;;;;;;15.57;7.95;;;;;;;14.62;61.97;101829.78;4900844;28;119493;-77
2022/06/04 02:53:13;;;;;;;13.23;8.27;;;;;;;14.59;61.99;101820.41;4934050;28;121107;-77
2022/06/04 02:55:46;;;;;;;11.15;7.82;;;;;;;14.62;61.51;101825.03;4951909;28;119900;-78
2022/06/04 02:58:16;;;;;;;12.98;8.50;;;;;;;14.58;61.35;101815.34;4933304;28;119869;-77
2022/06/04 03:00:44;;;;;;;15.13;8.48;;;;;;;14.63;61.87;101834.88;4932539;28;119436;-78
2022/06/04 03:03:12;;;;;;;14.13;8.70;;;;;;;14.63;61.91;101834.88;4932041;28;121870;-77
2022/06/04 03:05:55;;;;;;;12.18;8.55;;;;;;;14.66;61.91;101833.97;4932666;28;119662;-79
2022/06/04 03:08:21;;;;;;;13.52;8.10;;;;;;;14.70;61.69;101837.38;4932512;28;119271;-77
2022/06/04 03:10:48;;;;;;;11.65;7.90;;;;;;;14.76;62.15;101828.50;4937570;28;119920;-77
2022/06/04 03:13:14;;;;;;;12.73;7.97;;;;;;;14.74;61.77;101826.19;4932812;28;119348;-77
2022/06/04 03:15:40;;;;;;;13.35;7.90;;;;;;;14.83;62.01;101839.28;4915893;28;119872;-77
2022/06/04 03:18:06;;;;;;;12.68;8.07;;;;;;;14.88;61.81;101842.22;4932808;28;119281;-77
2022/06/04 03:20:32;;;;;;;12.90;8.27;;;;;;;14.92;61.63;101842.88;4932725;28;120789;-78
2022/06/04 03:22:58;;;;;;;11.60;8.40;;;;;;;14.97;61.42;101836.78;4915687;28;120290;-78
2022/06/04 03:25:23;;;;;;;11.55;8.00;;;;;;;14.99;61.36;101848.13;4935232;28;119225;-76
2022/06/04 03:27:55;;;;;;;12.88;8.48;;;;;;;15.01;61.80;101839.41;4935809;28;119628;-77
2022/06/04 03:30:21;;;;;;;10.85;8.20;;;;;;;15.04;61.85;101842.00;4939635;28;120601;-77
2022/06/04 03:32:47;;;;;;;14.73;8.25;;;;;;;15.13;61.79;101846.03;4956646;28;119736;-77
2022/06/04 03:35:14;;;;;;;9.55;7.57;;;;;;;15.16;62.12;101845.91;4952782;28;120094;-77
2022/06/04 03:37:40;;;;;;;14.55;8.13;;;;;;;15.22;62.30;101857.91;4951531;28;119986;-78
2022/06/04 03:40:07;;;;;;;12.75;7.90;;;;;;;15.22;61.92;101841.34;4951223;28;119638;-78
2022/06/04 03:42:32;;;;;;;13.20;8.75;;;;;;;15.28;61.99;101850.56;4950371;28;120413;-77
2022/06/04 03:44:58;;;;;;;13.32;7.85;;;;;;;15.33;61.60;101855.50;4933446;28;119928;-77
2022/06/04 03:47:25;;;;;;;13.10;8.15;;;;;;;15.32;61.42;101853.19;4935021;28;119780;-77
2022/06/04 03:49:51;;;;;;;15.20;7.85;;;;;;;15.34;61.45;101857.03;4935128;28;119325;-77
2022/06/04 03:52:17;;;;;;;15.38;8.45;;;;;;;15.28;60.97;101853.34;4952769;28;119564;-78
2022/06/04 03:54:52;;;;;;;13.50;8.10;;;;;;;15.38;61.13;101869.94;4938916;28;119733;-77
2022/06/04 03:57:39;;;;;;;11.52;7.95;;;;;;;15.39;60.60;101871.50;4952056;28;119617;-78
2022/06/04 04:00:22;;;;;;;15.55;8.02;;;;;;;15.39;60.84;101880.56;4930555;28;119762;-77
2022/06/04 04:02:55;;;;;;;12.32;7.60;;;;;;;15.41;60.93;101882.88;4919244;28;121925;-77
2022/06/04 04:05:25;;;;;;;16.27;8.65;;;;;;;15.42;61.09;101882.44;4935217;28;119635;-77
2022/06/04 04:07:51;;;;;;;11.35;8.65;;;;;;;15.45;61.56;101894.56;4953003;28;118438;-77
2022/06/04 04:10:18;;;;;;;11.43;7.82;;;;;;;15.42;60.88;101884.44;4952647;28;119262;-77
2022/06/04 04:12:44;;;;;;;14.68;8.15;;;;;;;15.43;61.15;101883.97;4953018;28;119644;-78
2022/06/04 04:15:12;;;;;;;11.70;8.27;;;;;;;15.50;62.04;101897.50;4953103;28;120137;-77
2022/06/04 04:17:39;;;;;;;14.15;8.20;;;;;;;15.46;60.67;101890.59;4938955;28;120053;-77
2022/06/04 04:20:14;;;;;;;12.80;8.05;;;;;;;15.50;60.32;101908.56;4951783;28;119619;-79
2022/06/04 04:22:44;;;;;;;14.15;8.35;;;;;;;15.49;59.94;101912.56;4952422;28;120636;-77
2022/06/04 04:25:15;;;;;;;14.00;8.63;;;;;;;15.45;60.32;101911.16;4953419;28;119661;-78
2022/06/04 04:27:41;;;;;;;14.70;7.80;;;;;;;15.43;61.30;101900.56;4953194;28;119394;-78
2022/06/04 04:30:09;;;;;;;13.88;8.95;;;;;;;15.51;61.40;101907.34;4952487;28;119284;-77
2022/06/04 04:32:35;;;;;;;12.68;8.27;;;;;;;15.54;61.71;101913.97;4935742;28;119565;-77
2022/06/04 04:35:03;;;;;;;12.52;8.13;;;;;;;15.58;61.30;101912.63;4919141;28;120945;-76
2022/06/04 04:37:29;;;;;;;15.05;7.88;;;;;;;15.59;61.04;101916.16;4934379;28;120067;-78
2022/06/04 04:39:55;;;;;;;13.20;7.65;;;;;;;15.54;60.54;101920.25;4939203;28;119705;-77
2022/06/04 04:42:22;;;;;;;11.57;7.53;;;;;;;15.49;60.90;101918.09;4952087;28;119333;-78
2022/06/04 04:44:48;;;;;;;11.95;8.07;;;;;;;15.53;60.56;101924.25;4952710;28;120366;-77
2022/06/04 04:47:14;;;;;;;13.80;8.25;;;;;;;15.50;59.85;101918.84;4935623;28;119273;-77
2022/06/04 04:49:40;;;;;;;10.75;7.47;;;;;;;15.43;60.35;101908.09;4918375;28;119887;-78
2022/06/04 04:52:06;;;;;;;11.50;7.40;;;;;;;15.49;60.84;101909.03;4952289;28;119822;-76
2022/06/04 04:54:33;;;;;;;12.65;7.72;;;;;;;15.55;60.25;101915.50;4935073;28;121246;-77
2022/06/04 04:56:59;;;;;;;11.75;8.00;;;;;;;15.53;60.16;101921.47;4952103;28;120371;-78
2022/06/04 04:59:25;;;;;;;17.05;7.80;;;;;;;15.45;59.66;101905.63;4939493;28;119260;-78
2022/06/04 05:01:50;;;;;;;13.98;7.75;;;;;;;15.48;60.35;101922.09;4952395;28;119364;-78
2022/06/04 05:04:16;;;;;;;12.27;7.95;;;;;;;15.47;60.82;101915.00;4952708;28;119511;-78
2022/06/04 05:06:43;;;;;;;16.15;8.25;;;;;;;15.52;61.08;101916.41;4934510;28;122035;-78
2022/06/04 05:09:09;;;;;;;13.55;7.55;;;;;;;15.55;61.23;101924.56;4935025;28;120340;-78
2022/06/04 05:11:35;;;;;;;11.93;7.80;;;;;;;15.59;61.17;101918.91;4936579;28;119413;-78
2022/06/04 05:14:02;;;;;;;13.88;8.05;;;;;;;15.60;60.62;101923.22;4956105;28;119444;-78
2022/06/04 05:16:31;;;;;;;13.25;7.95;;;;;;;15.64;60.06;101927.41;4937925;28;119937;-77
2022/06/04 05:18:58;;;;;;;11.55;7.43;;;;;;;15.62;60.03;101926.31;4938339;28;119474;-76
2022/06/04 05:21:36;;;;;;;13.95;8.10;;;;;;;15.59;59.70;101930.75;4959538;28;119408;-77
2022/06/04 05:24:03;;;;;;;12.25;7.80;;;;;;;15.60;59.86;101928.75;4955575;28;119327;-77
2022/06/04 05:26:28;;;;;;;12.30;7.75;;;;;;;15.58;59.93;101929.22;4955534;28;119579;-77
2022/06/04 05:28:54;;;;;;;14.35;8.38;;;;;;;15.54;60.16;101919.47;4937597;28;119448;-78
2022/06/04 05:31:24;;;;;;;11.02;7.57;;;;;;;15.58;60.65;101920.13;4955457;28;119660;-77
2022/06/04 05:33:50;;;;;;;11.35;7.70;;;;;;;15.58;59.95;101915.38;4955617;28;119733;-77
2022/06/04 05:36:16;;;;;;;16.52;8.13;;;;;;;15.59;60.04;101929.97;4920980;28;121161;-77
2022/06/04 05:38:42;;;;;;;13.02;8.25;;;;;;;15.61;60.08;101919.22;4955327;28;119675;-78
2022/06/04 05:41:11;;;;;;;14.18;8.38;;;;;;;15.62;60.05;101912.50;4955232;28;119411;-78
2022/06/04 05:43:40;;;;;;;12.68;8.50;;;;;;;15.64;60.33;101918.34;4924536;28;121328;-77
2022/06/04 05:46:09;;;;;;;16.55;8.52;;;;;;;15.66;59.48;101918.66;4954799;28;119648;-77
2022/06/04 05:48:37;;;;;;;16.45;8.20;;;;;;;15.66;59.69;101918.66;4936903;28;121893;-77
2022/06/04 05:51:04;;;;;;;16.52;8.23;;;;;;;15.65;60.06;101900.53;4954788;28;119579;-78
2022/06/04 05:53:29;;;;;;;13.88;8.30;;;;;;;15.71;59.61;101904.22;4953430;28;119370;-77
2022/06/04 05:55:55;;;;;;;12.30;7.88;;;;;;;15.72;59.30;101908.53;4936779;28;121913;-77
2022/06/04 05:58:21;;;;;;;13.02;7.50;;;;;;;15.72;59.50;101903.00;4954600;28;119304;-78
2022/06/04 06:00:47;;;;;;;14.05;8.35;;;;;;;15.67;59.15;101898.06;4937143;28;119730;-78
2022/06/04 06:03:13;;;;;;;12.57;8.25;;;;;;;15.69;59.19;101903.13;4941745;28;119759;-79
2022/06/04 06:05:44;;;;;;;14.20;7.60;;;;;;;15.74;58.63;101908.06;4939629;28;119293;-78
2022/06/04 06:08:10;;;;;;;13.25;8.40;;;;;;;15.66;59.46;101907.59;4934567;28;120175;-78
2022/06/04 06:10:44;;;;;;;11.60;7.75;;;;;;;15.72;59.09;101919.59;4947401;28;119345;-78
2022/06/04 06:13:11;;;;;;;13.00;8.70;;;;;;;15.73;59.08;101921.13;4936851;28;118710;-77
2022/06/04 06:15:38;;;;;;;16.15;8.77;;;;;;;15.72;59.85;101916.81;4960800;28;119911;-77
2022/06/04 06:18:05;;;;;;;13.27;8.10;;;;;;;15.82;59.59;101923.91;4974777;28;119847;-77
2022/06/04 06:20:34;;;;;;;14.50;7.88;;;;;;;15.76;59.15;101914.69;4974417;28;119295;-77
2022/06/04 06:23:00;;;;;;;14.50;8.15;;;;;;;15.80;59.45;101923.59;4973021;28;119353;-77
2022/06/04 06:25:26;;;;;;;13.55;8.48;;;;;;;15.86;59.35;101927.34;4956509;28;119261;-77
2022/06/04 06:27:52;;;;;;;15.35;8.48;;;;;;;15.83;59.43;101925.44;4944082;28;120316;-77
2022/06/04 06:30:19;;;;;;;12.23;8.00;;;;;;;15.88;59.15;101930.41;4975023;28;119791;-77
2022/06/04 06:32:46;;;;;;;13.25;8.57;;;;;;;15.93;58.95;101924.28;4956796;28;119335;-77
2022/06/04 06:35:12;;;;;;;15.57;8.27;;;;;;;15.96;59.26;101931.66;4973542;28;119928;-77
2022/06/04 06:37:38;;;;;;;16.10;8.27;;;;;;;15.98;58.71;101938.72;4956548;28;119719;-78
2022/06/04 06:40:05;;;;;;;12.30;8.68;;;;;;;15.90;58.93;101933.50;4974283;28;119332;-77
2022/06/04 06:42:31;;;;;;;15.10;8.57;;;;;;;15.93;58.60;101943.63;4974198;28;119594;-78
2022/06/04 06:45:04;;;;;;;14.68;8.95;;;;;;;15.88;58.99;101927.66;4956895;28;119441;-77
2022/06/04 06:47:33;;;;;;;13.75;8.07;;;;;;;16.00;58.99;101944.56;4978026;28;119292;-77
2022/06/04 06:50:00;;;;;;;14.98;8.85;;;;;;;16.03;58.33;101951.97;4956243;28;119622;-78
2022/06/04 06:52:25;;;;;;;13.13;8.73;;;;;;;16.03;58.57;101949.19;4973812;28;119481;-78
2022/06/04 06:54:51;;;;;;;12.13;7.97;;;;;;;16.01;58.37;101957.19;4974199;28;120035;-77
2022/06/04 06:57:20;;;;;;;13.40;8.05;;;;;;;16.00;58.42;101952.88;4956042;28;120074;-79
2022/06/04 06:59:47;;;;;;;14.45;8.13;;;;;;;16.00;58.10;101950.88;4974191;28;120311;-78
2022/06/04 07:02:13;;;;;;;12.27;7.90;;;;;;;16.01;57.83;101949.66;4973927;28;119342;-78
2022/06/04 07:04:39;;;;;;;12.68;7.97;;;;;;;16.03;59.04;101949.97;4939719;28;119376;-77
2022/06/04 07:07:05;;;;;;;11.82;8.60;;;;;;;16.12;59.91;101958.31;4973836;28;119619;-78
2022/06/04 07:09:37;;;;;;;11.52;8.25;;;;;;;16.22;59.61;101956.31;4977641;28;119304;-78
2022/06/04 07:12:04;;;;;;;16.90;9.23;;;;;;;16.30;60.26;101962.31;4964753;28;119424;-77
2022/06/04 07:14:30;;;;;;;13.88;8.50;;;;;;;16.35;59.11;101962.50;4900426;28;120143;-78
2022/06/04 07:16:57;;;;;;;12.32;8.27;;;;;;;16.34;59.32;101949.13;4937553;28;119438;-78
2022/06/04 07:19:24;;;;;;;12.68;7.93;;;;;;;16.42;59.13;101953.88;4936338;28;119530;-78
2022/06/04 07:21:52;;;;;;;13.32;8.73;;;;;;;16.50;59.98;101959.88;4953030;28;119959;-77
2022/06/04 07:24:18;;;;;;;13.20;8.60;;;;;;;16.52;59.65;101960.97;4935733;28;119554;-77
2022/06/04 07:26:44;;;;;;;15.77;8.77;;;;;;;16.59;59.38;101965.44;4935439;28;121747;-77
2022/06/04 07:29:11;;;;;;;14.35;9.00;;;;;;;16.62;58.75;101967.28;4938757;28;119960;-77
2022/06/04 07:31:37;;;;;;;17.25;10.13;;;;;;;16.65;58.52;101968.38;4959656;28;119699;-76
2022/06/04 07:34:03;;;;;;;15.07;10.02;;;;;;;16.69;59.36;101966.22;4972373;28;119765;-77
2022/06/04 07:36:32;;;;;;;14.45;8.75;;;;;;;16.67;59.88;101952.84;4972868;28;119662;-77
2022/06/04 07:38:58;;;;;;;15.00;7.88;;;;;;;16.77;59.00;101961.91;4955462;28;119544;-77
2022/06/04 07:41:29;;;;;;;16.45;8.75;;;;;;;16.82;59.15;101961.31;4955071;28;119308;-77
2022/06/04 07:43:56;;;;;;;14.95;8.18;;;;;;;16.87;59.26;101967.00;4954983;28;119563;-77
2022/06/04 07:46:25;;;;;;;15.30;7.90;;;;;;;16.90;58.77;101957.00;4972872;28;120162;-78
2022/06/04 07:48:51;;;;;;;14.48;7.50;;;;;;;16.94;58.09;101965.16;4954536;28;121809;-78
2022/06/04 07:51:17;;;;;;;13.18;7.78;;;;;;;16.94;57.43;101977.00;4973157;28;119983;-78
2022/06/04 07:53:44;;;;;;;13.25;7.75;;;;;;;16.93;56.01;101981.00;4958113;28;120954;-78
2022/06/04 07:56:14;;;;;;;12.18;6.63;;;;;;;16.87;55.69;101975.31;4955045;28;119678;-78
2022/06/04 07:58:41;;;;;;;11.23;6.65;;;;;;;16.83;55.82;101980.25;4954883;28;119851;-78
2022/06/04 08:01:09;;;;;;;13.80;7.45;;;;;;;16.77;56.49;101967.47;4954214;28;120743;-77
2022/06/04 08:03:36;;;;;;;15.77;7.88;;;;;;;16.86;56.81;101986.88;4972410;28;119211;-77
2022/06/04 08:06:04;;;;;;;11.73;7.25;;;;;;;16.89;56.76;101969.31;4972609;28;119802;-78
2022/06/04 08:08:32;;;;;;;11.25;6.43;;;;;;;16.97;55.82;101983.63;4954839;28;119980;-78
2022/06/04 08:10:59;;;;;;;14.18;7.03;;;;;;;17.01;56.06;101978.69;4972656;28;119378;-77
2022/06/04 08:13:26;;;;;;;14.32;7.13;;;;;;;17.01;55.39;101987.78;4954462;28;120948;-77
2022/06/04 08:15:56;;;;;;;9.32;6.43;;;;;;;16.99;55.83;101989.47;4958405;28;119736;-77
2022/06/04 08:18:22;;;;;;;12.40;6.47;;;;;;;16.98;55.67;101983.16;4938382;28;119916;-78
2022/06/04 08:20:48;;;;;;;12.38;6.97;;;;;;;17.01;55.54;101987.00;4953913;28;120439;-77
2022/06/04 08:23:14;;;;;;;13.30;7.20;;;;;;;17.03;56.04;101979.75;4937946;28;119592;-77
2022/06/04 08:25:42;;;;;;;13.82;6.55;;;;;;;17.07;56.03;101980.38;4953762;28;119335;-78
2022/06/04 08:28:08;;;;;;;14.52;7.07;;;;;;;17.16;57.07;101990.69;4953704;28;121655;-78
2022/06/04 08:30:34;;;;;;;14.25;7.18;;;;;;;17.25;57.30;101996.22;4954378;28;119677;-77
2022/06/04 08:33:00;;;;;;;15.68;7.32;;;;;;;17.32;56.07;101995.13;4971901;28;119956;-78
2022/06/04 08:35:26;;;;;;;14.88;7.82;;;;;;;17.34;56.43;101989.88;4971657;28;120303;-78
2022/06/04 08:37:52;;;;;;;12.10;7.30;;;;;;;17.42;56.41;101999.41;4957960;28;119632;-77
2022/06/04 08:40:28;;;;;;;15.27;7.38;;;;;;;17.46;55.62;101994.47;4971411;28;119774;-78
2022/06/04 08:43:08;;;;;;;14.35;7.40;;;;;;;17.50;56.20;101997.84;4954123;28;119494;-77
2022/06/04 08:45:37;;;;;;;13.45;6.80;;;;;;;17.53;56.02;102004.50;4959492;28;119364;-77
2022/06/04 08:48:04;;;;;;;14.90;7.05;;;;;;;17.61;55.52;102002.91;4955088;28;119442;-78
2022/06/04 08:50:35;;;;;;;11.25;6.75;;;;;;;17.65;55.30;101998.72;4955743;28;119376;-79
2022/06/04 08:53:03;;;;;;;10.95;6.78;;;;;;;17.71;56.72;102007.97;4937789;28;119419;-78
2022/06/04 08:58:45;;;;;;;;;;;;;;;17.75;55.28;102008.59;4959792;28;119772;-79
2022/06/04 09:01:23;;;;;;;14.07;7.07;;;;;;;17.81;55.43;102002.41;4894416;28;119532;-77
2022/06/04 09:04:19;;;;;;;14.20;7.78;;;;;;;17.81;53.96;102016.28;4938057;28;119319;-77
2022/06/04 09:07:02;;;;;;;12.02;6.60;;;;;;;17.76;55.89;102015.69;4937807;28;119307;-78
2022/06/04 09:09:50;;;;;;;17.00;8.25;;;;;;;17.85;57.11;102022.44;4954795;28;119281;-78
2022/06/04 09:12:25;;;;;;;15.80;8.25;;;;;;;17.94;57.00;102025.94;4921022;28;119381;-77
2022/06/04 09:15:04;;;;;;;14.23;7.10;;;;;;;18.01;56.58;102027.63;4937483;28;120209;-77
2022/06/04 09:17:50;;;;;;;12.27;8.18;;;;;;;18.08;57.64;102028.03;4920637;28;122017;-77
2022/06/04 09:20:38;;;;;;;19.25;10.68;;;;;;;18.14;55.12;102025.38;4937669;28;119731;-78
2022/06/04 09:23:30;;;;;;;13.05;7.40;;;;;;;18.13;53.67;102023.09;4940478;28;119725;-78
2022/06/04 09:26:14;;;;;;;15.73;7.40;;;;;;;18.12;55.03;102029.88;4954670;28;119352;-78
2022/06/04 09:29:19;;;;;;;12.75;7.55;;;;;;;18.18;55.36;102041.88;4954864;28;119437;-77
2022/06/04 09:31:55;;;;;;;11.15;7.28;;;;;;;18.23;55.98;102039.25;4900754;28;122669;-78
2022/06/04 09:34:35;;;;;;;9.90;6.57;;;;;;;18.28;55.49;102046.94;4961980;28;119875;-77
2022/06/04 09:37:02;;;;;;;11.40;7.50;;;;;;;18.30;54.85;102041.66;4956681;28;122079;-78
2022/06/04 09:39:33;;;;;;;13.95;7.20;;;;;;;18.36;54.92;102037.00;4955685;28;119421;-77
2022/06/04 09:41:59;;;;;;;12.25;7.50;;;;;;;18.44;54.38;102047.75;4940383;28;119760;-78
2022/06/04 09:44:28;;;;;;;14.27;7.30;;;;;;;18.46;54.69;102042.50;4973777;28;119454;-78
2022/06/04 09:47:07;;;;;;;15.63;7.70;;;;;;;18.49;53.51;102047.88;4959981;28;122032;-78
2022/06/04 09:49:42;;;;;;;11.50;6.97;;;;;;;18.47;53.13;102057.94;4973471;28;119391;-79
2022/06/04 09:52:22;;;;;;;12.68;7.57;;;;;;;18.39;54.46;102043.63;4947335;28;120153;-78
2022/06/04 09:55:03;;;;;;;11.55;7.70;;;;;;;18.44;54.23;102053.31;4942292;28;119370;-77
2022/06/04 09:57:35;;;;;;;13.45;7.55;;;;;;;18.53;54.64;102067.16;4919761;28;119944;-77
2022/06/04 10:00:20;;;;;;;12.77;7.90;;;;;;;18.59;53.74;102059.69;4953922;28;120431;-78
2022/06/04 10:03:16;;;;;;;12.38;7.32;;;;;;;18.64;53.16;102056.28;4952647;28;119563;-77
2022/06/04 10:06:06;;;;;;;12.73;7.43;;;;;;;18.69;53.35;102052.88;4951706;28;119470;-77
2022/06/04 10:11:23;;;;;;;14.48;7.90;;;;;;;18.76;53.25;102054.53;4957856;28;119697;-78
2022/06/04 10:13:52;;;;;;;14.25;8.05;;;;;;;18.82;53.25;102050.63;4952342;28;119785;-77
2022/06/04 10:16:22;;;;;;;13.15;7.43;;;;;;;18.88;53.26;102042.38;4938475;28;119883;-79
2022/06/04 10:19:00;;;;;;;15.77;7.18;;;;;;;18.91;52.41;102049.75;4934509;28;119572;-78
2022/06/04 10:21:36;;;;;;;14.52;7.22;;;;;;;18.91;51.84;102052.53;4946889;28;120744;-78
2022/06/04 10:24:18;;;;;;;17.35;7.93;;;;;;;18.93;53.09;102058.44;4919961;28;119779;-78
2022/06/04 10:26:54;;;;;;;11.55;7.20;;;;;;;19.00;52.64;102058.06;4916858;28;120169;-78
2022/06/04 10:30:09;;;;;;;12.73;6.93;;;;;;;19.00;52.83;102046.94;4934000;28;119328;-77
2022/06/04 10:32:50;;;;;;;13.60;7.82;;;;;;;19.08;52.73;102050.09;4913607;28;119657;-78
2022/06/04 10:35:34;;;;;;;13.32;7.03;;;;;;;19.15;52.32;102044.16;4939644;28;121428;-78
2022/06/04 10:38:29;;;;;;;12.90;7.80;;;;;;;19.12;53.00;102037.53;4916815;28;120206;-78
2022/06/04 10:40:55;;;;;;;12.63;7.65;;;;;;;19.22;53.97;102043.81;4916760;28;120954;-79
2022/06/04 10:43:40;;;;;;;13.07;7.30;;;;;;;19.25;53.45;102034.50;4915526;28;119642;-78
2022/06/04 10:46:33;;;;;;;15.25;7.88;;;;;;;19.32;54.20;102037.66;4916433;28;119473;-78
2022/06/04 10:49:35;;;;;;;14.30;7.20;;;;;;;19.39;52.23;102028.16;4916512;28;121790;-78
2022/06/04 10:52:27;;;;;;;12.82;7.10;;;;;;;19.47;52.61;102032.13;4934241;28;120156;-77
2022/06/04 10:54:52;;;;;;;14.30;7.53;;;;;;;19.51;52.20;102029.13;4953165;28;119350;-78
2022/06/04 10:57:31;;;;;;;16.55;7.57;;;;;;;19.47;51.77;102023.00;4919962;28;120013;-78
2022/06/04 11:00:14;;;;;;;12.57;7.10;;;;;;;19.38;52.38;102031.41;4939603;28;119787;-77
2022/06/04 11:02:45;;;;;;;12.87;7.10;;;;;;;19.27;50.51;102018.88;4920048;28;119689;-78
2022/06/04 11:05:19;;;;;;;14.93;7.00;;;;;;;19.24;52.04;102016.28;4952788;28;120163;-78
2022/06/04 11:08:21;;;;;;;14.95;7.13;;;;;;;19.23;51.30;102017.53;4936074;28;119454;-78
2022/06/04 11:10:55;;;;;;;13.05;7.20;;;;;;;19.22;52.87;102016.00;4944013;28;119596;-78
2022/06/04 11:13:34;;;;;;;13.07;7.80;;;;;;;19.32;53.13;102020.19;4950804;28;122084;-78
2022/06/04 11:16:39;;;;;;;15.38;7.85;;;;;;;19.40;53.17;102006.66;4953406;28;120030;-79
2022/06/04 11:19:11;;;;;;;11.90;6.63;;;;;;;19.41;51.97;102013.78;4935440;28;120773;-78
2022/06/04 11:22:06;;;;;;;13.25;6.90;;;;;;;19.30;51.25;102006.00;4956776;28;119794;-78
2022/06/04 11:24:41;;;;;;;10.38;6.63;;;;;;;19.27;50.99;102007.72;4953445;28;119437;-79
2022/06/04 11:27:11;;;;;;;13.13;6.50;;;;;;;19.25;51.44;102007.44;4945667;28;120394;-78
2022/06/04 11:29:39;;;;;;;15.50;7.45;;;;;;;19.24;51.68;102005.16;4935308;28;119390;-78
2022/06/04 11:32:26;;;;;;;15.15;7.60;;;;;;;19.30;52.30;102006.00;4952657;28;120057;-78
2022/06/04 11:35:10;;;;;;;11.38;7.20;;;;;;;19.31;52.21;101996.41;4934616;28;122118;-79
2022/06/04 11:38:10;;;;;;;14.55;7.05;;;;;;;19.32;52.46;101995.94;4934706;28;119721;-78
2022/06/04 11:40:54;;;;;;;16.60;8.15;;;;;;;19.34;54.05;101995.44;4918942;28;119795;-79
2022/06/04 11:43:26;;;;;;;13.68;7.32;;;;;;;19.36;52.94;101992.19;4952071;28;119975;-79